sensor_id;sensor_type;location;lat;lon;timestamp;P1;durP1;ratioP1;P2;durP2;ratioP2
11008;SDS011;5557;51.670;7.788;2024-03-23T00:55:40;17.20;;;8.33;;
11008;SDS011;5557;51.670;7.788;2024-03-23T00:58:07;11.47;;;5.60;;
11008;SDS011;5557;51.670;7.788;2024-03-23T01:00:34;7.47;;;4.13;;
11008;SDS011;5557;51.670;7.788;2024-03-23T01:02:59;8.83;;;4.30;;
11008;SDS011;5557;51.670;7.788;2024-03-23T01:05:25;15.73;;;5.40;;
11008;SDS011;5557;51.670;7.788;2024-03-23T01:07:51;14.07;;;5.33;;
11008;SDS011;5557;51.670;7.788;2024-03-23T01:10:17;12.73;;;5.63;;
11008;SDS011;5557;51.670;7.788;2024-03-23T01:12:43;6.53;;;4.43;;
11008;SDS011;5557;51.670;7.788;2024-03-23T01:15:09;10.07;;;4.67;;
11008;SDS011;5557;51.670;7.788;2024-03-23T01:17:35;9.60;;;5.40;;
11008;SDS011;5557;51.670;7.788;2024-03-23T01:20:01;9.37;;;4.40;;
11008;SDS011;5557;51.670;7.788;2024-03-23T01:22:28;10.00;;;4.77;;
11008;SDS011;5557;51.670;7.788;2024-03-23T01:24:54;12.73;;;5.53;;
11008;SDS011;5557;51.670;7.788;2024-03-23T01:27:20;8.23;;;5.23;;
11008;SDS011;5557;51.670;7.788;2024-03-23T01:29:45;12.73;;;5.07;;
11008;SDS011;5557;51.670;7.788;2024-03-23T01:32:11;8.23;;;3.80;;
11008;SDS011;5557;51.670;7.788;2024-03-23T01:34:37;9.10;;;3.97;;
11008;SDS011;5557;51.670;7.788;2024-03-23T01:37:03;10.10;;;3.33;;
11008;SDS011;5557;51.670;7.788;2024-03-23T01:39:30;9.40;;;3.70;;
11008;SDS011;5557;51.670;7.788;2024-03-23T01:41:56;8.23;;;3.23;;
11008;SDS011;5557;51.670;7.788;2024-03-23T01:44:22;10.10;;;4.60;;
11008;SDS011;5557;51.670;7.788;2024-03-23T01:46:48;19.00;;;4.90;;
11008;SDS011;5557;51.670;7.788;2024-03-23T01:49:14;12.47;;;4.60;;
11008;SDS011;5557;51.670;7.788;2024-03-23T01:51:40;10.53;;;4.30;;
11008;SDS011;5557;51.670;7.788;2024-03-23T01:54:08;7.93;;;4.47;;
11008;SDS011;5557;51.670;7.788;2024-03-23T01:56:34;9.57;;;4.50;;
11008;SDS011;5557;51.670;7.788;2024-03-23T01:59:04;11.93;;;3.40;;
11008;SDS011;5557;51.670;7.788;2024-03-23T02:01:31;9.17;;;3.50;;
11008;SDS011;5557;51.670;7.788;2024-03-23T02:03:58;9.20;;;3.60;;
11008;SDS011;5557;51.670;7.788;2024-03-23T02:06:24;6.27;;;4.30;;
11008;SDS011;5557;51.670;7.788;2024-03-23T02:08:50;7.73;;;3.90;;
11008;SDS011;5557;51.670;7.788;2024-03-23T02:11:16;7.07;;;4.33;;
11008;SDS011;5557;51.670;7.788;2024-03-23T02:13:42;10.07;;;3.80;;
11008;SDS011;5557;51.670;7.788;2024-03-23T02:16:08;10.93;;;4.03;;
11008;SDS011;5557;51.670;7.788;2024-03-23T02:18:34;9.40;;;4.23;;
11008;SDS011;5557;51.670;7.788;2024-03-23T02:21:00;10.07;;;3.60;;
11008;SDS011;5557;51.670;7.788;2024-03-23T02:23:26;7.67;;;3.97;;
11008;SDS011;5557;51.670;7.788;2024-03-23T02:25:52;7.57;;;3.70;;
11008;SDS011;5557;51.670;7.788;2024-03-23T02:28:19;17.77;;;5.00;;
11008;SDS011;5557;51.670;7.788;2024-03-23T02:30:45;10.80;;;4.97;;
11008;SDS011;5557;51.670;7.788;2024-03-23T02:33:11;12.73;;;4.73;;
11008;SDS011;5557;51.670;7.788;2024-03-23T02:35:37;8.53;;;5.33;;
11008;SDS011;5557;51.670;7.788;2024-03-23T02:38:03;6.13;;;4.43;;
11008;SDS011;5557;51.670;7.788;2024-03-23T02:40:29;12.10;;;4.83;;
11008;SDS011;5557;51.670;7.788;2024-03-23T02:42:55;13.30;;;4.50;;
11008;SDS011;5557;51.670;7.788;2024-03-23T02:45:21;17.13;;;5.00;;
11008;SDS011;5557;51.670;7.788;2024-03-23T02:47:47;8.07;;;4.67;;
11008;SDS011;5557;51.670;7.788;2024-03-23T02:50:20;11.93;;;4.67;;
11008;SDS011;5557;51.670;7.788;2024-03-23T02:52:46;12.60;;;5.40;;
11008;SDS011;5557;51.670;7.788;2024-03-23T02:55:13;22.03;;;6.90;;
11008;SDS011;5557;51.670;7.788;2024-03-23T02:57:40;5.57;;;5.00;;
11008;SDS011;5557;51.670;7.788;2024-03-23T03:00:06;13.93;;;5.30;;
11008;SDS011;5557;51.670;7.788;2024-03-23T03:02:33;9.00;;;4.27;;
11008;SDS011;5557;51.670;7.788;2024-03-23T03:04:59;10.10;;;5.63;;
11008;SDS011;5557;51.670;7.788;2024-03-23T03:07:25;23.43;;;6.23;;
11008;SDS011;5557;51.670;7.788;2024-03-23T03:09:51;17.73;;;5.50;;
11008;SDS011;5557;51.670;7.788;2024-03-23T03:12:17;13.77;;;5.50;;
11008;SDS011;5557;51.670;7.788;2024-03-23T03:14:43;12.67;;;5.33;;
11008;SDS011;5557;51.670;7.788;2024-03-23T03:17:09;21.00;;;5.80;;
11008;SDS011;5557;51.670;7.788;2024-03-23T03:19:35;20.33;;;6.43;;
11008;SDS011;5557;51.670;7.788;2024-03-23T03:22:01;19.93;;;5.67;;
11008;SDS011;5557;51.670;7.788;2024-03-23T03:24:28;12.43;;;6.30;;
11008;SDS011;5557;51.670;7.788;2024-03-23T03:26:54;14.43;;;5.63;;
11008;SDS011;5557;51.670;7.788;2024-03-23T03:29:20;11.60;;;5.17;;
11008;SDS011;5557;51.670;7.788;2024-03-23T03:31:46;16.17;;;6.53;;
11008;SDS011;5557;51.670;7.788;2024-03-23T03:34:12;12.07;;;5.40;;
11008;SDS011;5557;51.670;7.788;2024-03-23T03:36:38;12.90;;;5.10;;
11008;SDS011;5557;51.670;7.788;2024-03-23T03:39:04;12.53;;;5.07;;
11008;SDS011;5557;51.670;7.788;2024-03-23T03:41:31;11.00;;;4.90;;
11008;SDS011;5557;51.670;7.788;2024-03-23T03:43:57;14.30;;;6.73;;
11008;SDS011;5557;51.670;7.788;2024-03-23T03:46:30;16.53;;;6.53;;
11008;SDS011;5557;51.670;7.788;2024-03-23T03:48:57;15.00;;;7.10;;
11008;SDS011;5557;51.670;7.788;2024-03-23T03:51:23;14.17;;;6.03;;
11008;SDS011;5557;51.670;7.788;2024-03-23T03:53:49;12.47;;;6.23;;
11008;SDS011;5557;51.670;7.788;2024-03-23T03:56:15;16.17;;;5.47;;
11008;SDS011;5557;51.670;7.788;2024-03-23T03:58:40;8.80;;;5.00;;
11008;SDS011;5557;51.670;7.788;2024-03-23T04:01:06;15.50;;;5.53;;
11008;SDS011;5557;51.670;7.788;2024-03-23T04:03:32;9.30;;;4.17;;
11008;SDS011;5557;51.670;7.788;2024-03-23T04:05:58;13.50;;;4.57;;
11008;SDS011;5557;51.670;7.788;2024-03-23T04:08:24;16.93;;;4.87;;
11008;SDS011;5557;51.670;7.788;2024-03-23T04:10:50;18.37;;;5.23;;
11008;SDS011;5557;51.670;7.788;2024-03-23T04:13:16;10.63;;;5.00;;
11008;SDS011;5557;51.670;7.788;2024-03-23T04:15:42;13.83;;;4.90;;
11008;SDS011;5557;51.670;7.788;2024-03-23T04:18:08;16.43;;;5.57;;
11008;SDS011;5557;51.670;7.788;2024-03-23T04:20:34;12.80;;;4.90;;
11008;SDS011;5557;51.670;7.788;2024-03-23T04:23:00;18.03;;;5.33;;
11008;SDS011;5557;51.670;7.788;2024-03-23T04:25:26;13.73;;;4.90;;
11008;SDS011;5557;51.670;7.788;2024-03-23T04:27:52;7.87;;;4.53;;
11008;SDS011;5557;51.670;7.788;2024-03-23T04:30:18;9.07;;;5.00;;
11008;SDS011;5557;51.670;7.788;2024-03-23T04:32:44;21.30;;;5.90;;
11008;SDS011;5557;51.670;7.788;2024-03-23T04:35:10;15.90;;;5.23;;
11008;SDS011;5557;51.670;7.788;2024-03-23T04:37:37;11.20;;;4.53;;
11008;SDS011;5557;51.670;7.788;2024-03-23T04:40:03;12.33;;;5.00;;
11008;SDS011;5557;51.670;7.788;2024-03-23T04:42:30;15.53;;;5.13;;
11008;SDS011;5557;51.670;7.788;2024-03-23T04:44:56;14.73;;;5.17;;
11008;SDS011;5557;51.670;7.788;2024-03-23T04:47:22;12.30;;;5.20;;
11008;SDS011;5557;51.670;7.788;2024-03-23T04:49:48;12.40;;;5.37;;
11008;SDS011;5557;51.670;7.788;2024-03-23T04:52:15;14.93;;;4.73;;
11008;SDS011;5557;51.670;7.788;2024-03-23T04:54:41;16.87;;;4.97;;
11008;SDS011;5557;51.670;7.788;2024-03-23T04:57:07;18.13;;;4.70;;
11008;SDS011;5557;51.670;7.788;2024-03-23T04:59:33;7.63;;;4.63;;
11008;SDS011;5557;51.670;7.788;2024-03-23T05:01:59;16.37;;;4.10;;
11008;SDS011;5557;51.670;7.788;2024-03-23T05:04:26;10.20;;;5.00;;
11008;SDS011;5557;51.670;7.788;2024-03-23T05:06:52;14.93;;;5.27;;
11008;SDS011;5557;51.670;7.788;2024-03-23T05:09:18;13.30;;;4.70;;
11008;SDS011;5557;51.670;7.788;2024-03-23T05:11:45;17.37;;;5.50;;
11008;SDS011;5557;51.670;7.788;2024-03-23T05:14:14;21.23;;;5.77;;
11008;SDS011;5557;51.670;7.788;2024-03-23T05:16:40;12.60;;;4.90;;
11008;SDS011;5557;51.670;7.788;2024-03-23T05:19:06;19.80;;;4.53;;
11008;SDS011;5557;51.670;7.788;2024-03-23T05:21:32;18.40;;;5.93;;
11008;SDS011;5557;51.670;7.788;2024-03-23T05:23:58;9.97;;;4.57;;
11008;SDS011;5557;51.670;7.788;2024-03-23T05:26:24;9.93;;;4.30;;
11008;SDS011;5557;51.670;7.788;2024-03-23T05:28:50;18.60;;;6.20;;
11008;SDS011;5557;51.670;7.788;2024-03-23T05:31:23;14.83;;;4.90;;
11008;SDS011;5557;51.670;7.788;2024-03-23T05:33:52;19.07;;;4.87;;
11008;SDS011;5557;51.670;7.788;2024-03-23T05:36:18;13.13;;;5.53;;
11008;SDS011;5557;51.670;7.788;2024-03-23T05:38:44;15.30;;;5.50;;
11008;SDS011;5557;51.670;7.788;2024-03-23T05:41:10;12.30;;;4.73;;
11008;SDS011;5557;51.670;7.788;2024-03-23T05:43:36;13.77;;;5.33;;
11008;SDS011;5557;51.670;7.788;2024-03-23T05:46:02;15.00;;;4.80;;
11008;SDS011;5557;51.670;7.788;2024-03-23T05:48:32;22.87;;;6.70;;
11008;SDS011;5557;51.670;7.788;2024-03-23T05:50:59;18.60;;;7.47;;
11008;SDS011;5557;51.670;7.788;2024-03-23T05:53:25;17.07;;;8.17;;
11008;SDS011;5557;51.670;7.788;2024-03-23T05:55:51;20.00;;;6.70;;
11008;SDS011;5557;51.670;7.788;2024-03-23T05:58:26;8.37;;;6.10;;
11008;SDS011;5557;51.670;7.788;2024-03-23T06:00:56;18.17;;;5.80;;
11008;SDS011;5557;51.670;7.788;2024-03-23T06:03:24;13.10;;;6.13;;
11008;SDS011;5557;51.670;7.788;2024-03-23T06:05:51;12.83;;;5.90;;
11008;SDS011;5557;51.670;7.788;2024-03-23T06:08:18;15.93;;;7.17;;
11008;SDS011;5557;51.670;7.788;2024-03-23T06:10:45;11.37;;;5.73;;
11008;SDS011;5557;51.670;7.788;2024-03-23T06:13:11;10.40;;;6.00;;
11008;SDS011;5557;51.670;7.788;2024-03-23T06:15:38;18.70;;;6.33;;
11008;SDS011;5557;51.670;7.788;2024-03-23T06:18:04;15.87;;;6.80;;
11008;SDS011;5557;51.670;7.788;2024-03-23T06:20:31;17.20;;;7.27;;
11008;SDS011;5557;51.670;7.788;2024-03-23T06:22:57;17.23;;;6.93;;
11008;SDS011;5557;51.670;7.788;2024-03-23T06:25:23;20.40;;;8.93;;
11008;SDS011;5557;51.670;7.788;2024-03-23T06:27:49;12.50;;;7.50;;
11008;SDS011;5557;51.670;7.788;2024-03-23T06:30:15;13.00;;;7.87;;
11008;SDS011;5557;51.670;7.788;2024-03-23T06:32:41;23.43;;;10.17;;
11008;SDS011;5557;51.670;7.788;2024-03-23T06:35:07;28.13;;;10.13;;
11008;SDS011;5557;51.670;7.788;2024-03-23T06:37:37;22.60;;;11.27;;
11008;SDS011;5557;51.670;7.788;2024-03-23T06:40:04;13.60;;;10.17;;
11008;SDS011;5557;51.670;7.788;2024-03-23T06:42:35;22.20;;;12.70;;
11008;SDS011;5557;51.670;7.788;2024-03-23T06:45:01;28.83;;;13.50;;
11008;SDS011;5557;51.670;7.788;2024-03-23T06:47:29;32.27;;;13.97;;
11008;SDS011;5557;51.670;7.788;2024-03-23T06:49:55;28.97;;;15.77;;
11008;SDS011;5557;51.670;7.788;2024-03-23T06:52:21;28.83;;;15.13;;
11008;SDS011;5557;51.670;7.788;2024-03-23T06:54:47;27.53;;;16.00;;
11008;SDS011;5557;51.670;7.788;2024-03-23T06:57:13;29.13;;;18.10;;
11008;SDS011;5557;51.670;7.788;2024-03-23T06:59:39;32.87;;;15.63;;
11008;SDS011;5557;51.670;7.788;2024-03-23T07:02:05;30.43;;;16.40;;
11008;SDS011;5557;51.670;7.788;2024-03-23T07:04:34;28.80;;;16.10;;
11008;SDS011;5557;51.670;7.788;2024-03-23T07:07:00;25.90;;;16.00;;
11008;SDS011;5557;51.670;7.788;2024-03-23T07:09:27;38.73;;;17.00;;
11008;SDS011;5557;51.670;7.788;2024-03-23T07:11:54;28.60;;;16.03;;
11008;SDS011;5557;51.670;7.788;2024-03-23T07:14:21;28.87;;;16.17;;
11008;SDS011;5557;51.670;7.788;2024-03-23T07:16:48;34.37;;;17.90;;
11008;SDS011;5557;51.670;7.788;2024-03-23T07:19:15;24.67;;;15.60;;
11008;SDS011;5557;51.670;7.788;2024-03-23T07:21:42;28.83;;;15.60;;
11008;SDS011;5557;51.670;7.788;2024-03-23T07:24:08;24.33;;;15.60;;
11008;SDS011;5557;51.670;7.788;2024-03-23T07:26:35;25.07;;;15.73;;
11008;SDS011;5557;51.670;7.788;2024-03-23T07:29:01;25.93;;;14.40;;
11008;SDS011;5557;51.670;7.788;2024-03-23T07:31:27;22.33;;;14.07;;
11008;SDS011;5557;51.670;7.788;2024-03-23T07:33:53;23.10;;;13.33;;
11008;SDS011;5557;51.670;7.788;2024-03-23T07:36:19;23.93;;;13.13;;
11008;SDS011;5557;51.670;7.788;2024-03-23T07:38:45;26.63;;;13.27;;
11008;SDS011;5557;51.670;7.788;2024-03-23T07:41:12;26.60;;;12.93;;
11008;SDS011;5557;51.670;7.788;2024-03-23T07:43:42;21.57;;;12.67;;
11008;SDS011;5557;51.670;7.788;2024-03-23T07:46:08;28.40;;;11.97;;
11008;SDS011;5557;51.670;7.788;2024-03-23T07:48:34;19.80;;;10.80;;
11008;SDS011;5557;51.670;7.788;2024-03-23T07:51:13;22.97;;;11.20;;
11008;SDS011;5557;51.670;7.788;2024-03-23T07:53:44;18.23;;;10.80;;
11008;SDS011;5557;51.670;7.788;2024-03-23T07:56:11;17.60;;;9.33;;
11008;SDS011;5557;51.670;7.788;2024-03-23T07:58:37;19.20;;;8.07;;
11008;SDS011;5557;51.670;7.788;2024-03-23T08:01:14;15.30;;;7.40;;
11008;SDS011;5557;51.670;7.788;2024-03-23T08:03:41;19.13;;;8.43;;
11008;SDS011;5557;51.670;7.788;2024-03-23T08:06:15;11.93;;;6.60;;
11008;SDS011;5557;51.670;7.788;2024-03-23T08:08:43;8.53;;;7.20;;
11008;SDS011;5557;51.670;7.788;2024-03-23T08:11:10;16.67;;;8.37;;
11008;SDS011;5557;51.670;7.788;2024-03-23T08:13:38;17.83;;;8.00;;
11008;SDS011;5557;51.670;7.788;2024-03-23T08:16:04;16.87;;;7.90;;
11008;SDS011;5557;51.670;7.788;2024-03-23T08:18:31;11.87;;;7.33;;
11008;SDS011;5557;51.670;7.788;2024-03-23T08:21:01;15.87;;;6.07;;
11008;SDS011;5557;51.670;7.788;2024-03-23T08:23:28;16.20;;;5.27;;
11008;SDS011;5557;51.670;7.788;2024-03-23T08:25:59;10.67;;;5.13;;
11008;SDS011;5557;51.670;7.788;2024-03-23T08:28:25;15.67;;;5.80;;
11008;SDS011;5557;51.670;7.788;2024-03-23T08:30:52;11.10;;;5.07;;
11008;SDS011;5557;51.670;7.788;2024-03-23T08:33:19;12.23;;;4.90;;
11008;SDS011;5557;51.670;7.788;2024-03-23T08:35:58;16.90;;;5.43;;
11008;SDS011;5557;51.670;7.788;2024-03-23T08:38:26;14.10;;;4.93;;
11008;SDS011;5557;51.670;7.788;2024-03-23T08:40:59;9.07;;;4.70;;
11008;SDS011;5557;51.670;7.788;2024-03-23T08:43:36;13.03;;;4.30;;
11008;SDS011;5557;51.670;7.788;2024-03-23T08:46:13;14.23;;;4.90;;
11008;SDS011;5557;51.670;7.788;2024-03-23T08:48:41;12.47;;;4.40;;
11008;SDS011;5557;51.670;7.788;2024-03-23T08:51:14;13.73;;;5.40;;
11008;SDS011;5557;51.670;7.788;2024-03-23T08:53:42;12.20;;;4.53;;
11008;SDS011;5557;51.670;7.788;2024-03-23T08:56:08;12.07;;;3.73;;
11008;SDS011;5557;51.670;7.788;2024-03-23T08:58:35;13.47;;;3.60;;
11008;SDS011;5557;51.670;7.788;2024-03-23T09:01:03;9.30;;;4.10;;
11008;SDS011;5557;51.670;7.788;2024-03-23T09:03:33;13.93;;;4.40;;
11008;SDS011;5557;51.670;7.788;2024-03-23T09:06:00;9.70;;;3.60;;
11008;SDS011;5557;51.670;7.788;2024-03-23T09:08:26;7.77;;;3.37;;
11008;SDS011;5557;51.670;7.788;2024-03-23T09:10:52;6.13;;;3.60;;
11008;SDS011;5557;51.670;7.788;2024-03-23T09:13:19;11.93;;;3.53;;
11008;SDS011;5557;51.670;7.788;2024-03-23T09:15:48;9.20;;;3.07;;
11008;SDS011;5557;51.670;7.788;2024-03-23T09:18:16;10.40;;;3.70;;
11008;SDS011;5557;51.670;7.788;2024-03-23T09:20:42;9.33;;;3.47;;
11008;SDS011;5557;51.670;7.788;2024-03-23T09:23:09;10.00;;;3.57;;
11008;SDS011;5557;51.670;7.788;2024-03-23T09:25:38;10.43;;;3.07;;
11008;SDS011;5557;51.670;7.788;2024-03-23T09:28:05;16.67;;;3.57;;
11008;SDS011;5557;51.670;7.788;2024-03-23T09:30:32;7.53;;;3.33;;
11008;SDS011;5557;51.670;7.788;2024-03-23T09:32:58;6.77;;;3.57;;
11008;SDS011;5557;51.670;7.788;2024-03-23T09:35:24;6.93;;;3.60;;
11008;SDS011;5557;51.670;7.788;2024-03-23T09:37:51;14.70;;;3.80;;
11008;SDS011;5557;51.670;7.788;2024-03-23T09:40:16;8.57;;;3.80;;
11008;SDS011;5557;51.670;7.788;2024-03-23T09:42:42;4.67;;;2.70;;
11008;SDS011;5557;51.670;7.788;2024-03-23T09:45:21;6.47;;;3.73;;
11008;SDS011;5557;51.670;7.788;2024-03-23T09:47:52;11.93;;;3.83;;
11008;SDS011;5557;51.670;7.788;2024-03-23T09:50:18;10.10;;;3.43;;
11008;SDS011;5557;51.670;7.788;2024-03-23T09:52:47;9.13;;;3.50;;
11008;SDS011;5557;51.670;7.788;2024-03-23T09:55:13;10.53;;;3.27;;
11008;SDS011;5557;51.670;7.788;2024-03-23T09:57:40;10.97;;;3.10;;
11008;SDS011;5557;51.670;7.788;2024-03-23T10:00:06;13.23;;;2.97;;
11008;SDS011;5557;51.670;7.788;2024-03-23T10:02:36;8.13;;;2.90;;
11008;SDS011;5557;51.670;7.788;2024-03-23T10:05:03;7.27;;;2.70;;
11008;SDS011;5557;51.670;7.788;2024-03-23T10:07:29;5.03;;;2.60;;
11008;SDS011;5557;51.670;7.788;2024-03-23T10:09:56;7.13;;;2.67;;
11008;SDS011;5557;51.670;7.788;2024-03-23T10:12:22;6.60;;;2.93;;
11008;SDS011;5557;51.670;7.788;2024-03-23T10:14:49;3.90;;;2.23;;
11008;SDS011;5557;51.670;7.788;2024-03-23T10:17:19;8.97;;;3.10;;
11008;SDS011;5557;51.670;7.788;2024-03-23T10:19:49;17.40;;;3.10;;
11008;SDS011;5557;51.670;7.788;2024-03-23T10:22:22;10.27;;;2.73;;
11008;SDS011;5557;51.670;7.788;2024-03-23T10:24:52;9.87;;;3.10;;
11008;SDS011;5557;51.670;7.788;2024-03-23T10:27:19;10.23;;;3.77;;
11008;SDS011;5557;51.670;7.788;2024-03-23T10:29:46;5.63;;;3.00;;
11008;SDS011;5557;51.670;7.788;2024-03-23T10:32:14;8.83;;;2.80;;
11008;SDS011;5557;51.670;7.788;2024-03-23T10:34:41;11.20;;;2.90;;
11008;SDS011;5557;51.670;7.788;2024-03-23T10:37:07;7.77;;;2.23;;
11008;SDS011;5557;51.670;7.788;2024-03-23T10:39:40;3.27;;;1.97;;
11008;SDS011;5557;51.670;7.788;2024-03-23T10:42:07;4.90;;;2.20;;
11008;SDS011;5557;51.670;7.788;2024-03-23T10:44:36;10.40;;;2.23;;
11008;SDS011;5557;51.670;7.788;2024-03-23T10:47:02;5.47;;;2.30;;
11008;SDS011;5557;51.670;7.788;2024-03-23T10:49:29;5.60;;;2.43;;
11008;SDS011;5557;51.670;7.788;2024-03-23T10:51:59;3.83;;;2.27;;
11008;SDS011;5557;51.670;7.788;2024-03-23T10:54:26;2.00;;;1.77;;
11008;SDS011;5557;51.670;7.788;2024-03-23T10:57:03;5.97;;;2.27;;
11008;SDS011;5557;51.670;7.788;2024-03-23T10:59:33;4.40;;;1.77;;
11008;SDS011;5557;51.670;7.788;2024-03-23T11:02:02;7.60;;;2.00;;
11008;SDS011;5557;51.670;7.788;2024-03-23T11:04:38;2.10;;;1.50;;
11008;SDS011;5557;51.670;7.788;2024-03-23T11:07:47;2.23;;;1.40;;
11008;SDS011;5557;51.670;7.788;2024-03-23T11:09:59;4.40;;;2.10;;
11008;SDS011;5557;51.670;7.788;2024-03-23T11:12:27;3.03;;;1.30;;
11008;SDS011;5557;51.670;7.788;2024-03-23T11:14:58;11.93;;;1.43;;
11008;SDS011;5557;51.670;7.788;2024-03-23T11:17:31;5.23;;;1.60;;
11008;SDS011;5557;51.670;7.788;2024-03-23T11:20:01;6.70;;;1.93;;
11008;SDS011;5557;51.670;7.788;2024-03-23T11:25:28;10.03;;;1.80;;
11008;SDS011;5557;51.670;7.788;2024-03-23T11:28:12;7.70;;;1.73;;
11008;SDS011;5557;51.670;7.788;2024-03-23T11:30:38;4.80;;;1.40;;
11008;SDS011;5557;51.670;7.788;2024-03-23T11:33:04;2.13;;;1.47;;
11008;SDS011;5557;51.670;7.788;2024-03-23T11:35:34;5.40;;;2.00;;
11008;SDS011;5557;51.670;7.788;2024-03-23T11:38:09;5.57;;;1.50;;
11008;SDS011;5557;51.670;7.788;2024-03-23T11:40:40;8.63;;;2.10;;
11008;SDS011;5557;51.670;7.788;2024-03-23T11:43:12;5.50;;;1.13;;
11008;SDS011;5557;51.670;7.788;2024-03-23T11:48:23;10.63;;;2.20;;
11008;SDS011;5557;51.670;7.788;2024-03-23T11:50:58;4.00;;;1.30;;
11008;SDS011;5557;51.670;7.788;2024-03-23T11:53:24;5.60;;;1.07;;
11008;SDS011;5557;51.670;7.788;2024-03-23T11:55:57;1.30;;;0.97;;
11008;SDS011;5557;51.670;7.788;2024-03-23T11:58:24;2.90;;;0.80;;
11008;SDS011;5557;51.670;7.788;2024-03-23T12:00:56;4.20;;;1.07;;
11008;SDS011;5557;51.670;7.788;2024-03-23T12:03:26;17.37;;;1.20;;
11008;SDS011;5557;51.670;7.788;2024-03-23T12:06:03;2.07;;;0.83;;
11008;SDS011;5557;51.670;7.788;2024-03-23T12:08:34;1.23;;;0.80;;
11008;SDS011;5557;51.670;7.788;2024-03-23T12:11:07;1.30;;;0.83;;
11008;SDS011;5557;51.670;7.788;2024-03-23T12:13:37;1.57;;;1.10;;
11008;SDS011;5557;51.670;7.788;2024-03-23T12:16:10;1.40;;;0.80;;
11008;SDS011;5557;51.670;7.788;2024-03-23T12:18:37;1.00;;;0.87;;
11008;SDS011;5557;51.670;7.788;2024-03-23T12:21:06;1.20;;;1.00;;
11008;SDS011;5557;51.670;7.788;2024-03-23T12:23:32;1.50;;;0.87;;
11008;SDS011;5557;51.670;7.788;2024-03-23T12:25:59;1.87;;;0.90;;
11008;SDS011;5557;51.670;7.788;2024-03-23T12:28:25;6.83;;;1.83;;
11008;SDS011;5557;51.670;7.788;2024-03-23T12:30:51;1.50;;;1.20;;
11008;SDS011;5557;51.670;7.788;2024-03-23T12:33:20;2.50;;;1.27;;
11008;SDS011;5557;51.670;7.788;2024-03-23T12:35:47;2.40;;;1.10;;
11008;SDS011;5557;51.670;7.788;2024-03-23T12:38:13;3.57;;;1.73;;
11008;SDS011;5557;51.670;7.788;2024-03-23T12:40:39;4.47;;;1.70;;
11008;SDS011;5557;51.670;7.788;2024-03-23T12:43:06;5.17;;;1.70;;
11008;SDS011;5557;51.670;7.788;2024-03-23T12:45:33;1.87;;;1.60;;
11008;SDS011;5557;51.670;7.788;2024-03-23T12:47:59;4.07;;;1.90;;
11008;SDS011;5557;51.670;7.788;2024-03-23T12:50:25;2.93;;;2.10;;
11008;SDS011;5557;51.670;7.788;2024-03-23T12:52:51;2.13;;;1.80;;
11008;SDS011;5557;51.670;7.788;2024-03-23T12:55:17;3.30;;;1.87;;
11008;SDS011;5557;51.670;7.788;2024-03-23T12:57:44;2.90;;;1.50;;
11008;SDS011;5557;51.670;7.788;2024-03-23T13:00:10;2.40;;;2.20;;
11008;SDS011;5557;51.670;7.788;2024-03-23T13:02:40;8.30;;;2.70;;
11008;SDS011;5557;51.670;7.788;2024-03-23T13:05:06;4.90;;;2.53;;
11008;SDS011;5557;51.670;7.788;2024-03-23T13:07:34;4.70;;;2.67;;
11008;SDS011;5557;51.670;7.788;2024-03-23T13:10:04;3.23;;;2.80;;
11008;SDS011;5557;51.670;7.788;2024-03-23T13:12:31;5.00;;;3.77;;
11008;SDS011;5557;51.670;7.788;2024-03-23T13:14:58;6.40;;;2.33;;
11008;SDS011;5557;51.670;7.788;2024-03-23T13:17:25;7.50;;;2.90;;
11008;SDS011;5557;51.670;7.788;2024-03-23T13:19:55;5.67;;;5.27;;
11008;SDS011;5557;51.670;7.788;2024-03-23T13:22:21;7.70;;;3.00;;
11008;SDS011;5557;51.670;7.788;2024-03-23T13:24:47;6.20;;;2.67;;
11008;SDS011;5557;51.670;7.788;2024-03-23T13:27:13;3.20;;;2.10;;
11008;SDS011;5557;51.670;7.788;2024-03-23T13:29:39;12.93;;;2.80;;
11008;SDS011;5557;51.670;7.788;2024-03-23T13:32:05;2.40;;;2.27;;
11008;SDS011;5557;51.670;7.788;2024-03-23T13:34:32;2.00;;;1.50;;
11008;SDS011;5557;51.670;7.788;2024-03-23T13:37:00;1.83;;;1.40;;
11008;SDS011;5557;51.670;7.788;2024-03-23T13:39:26;5.50;;;1.30;;
11008;SDS011;5557;51.670;7.788;2024-03-23T13:41:55;4.67;;;1.73;;
11008;SDS011;5557;51.670;7.788;2024-03-23T13:44:21;4.53;;;1.50;;
11008;SDS011;5557;51.670;7.788;2024-03-23T13:46:47;2.80;;;1.67;;
11008;SDS011;5557;51.670;7.788;2024-03-23T13:49:23;4.13;;;1.87;;
11008;SDS011;5557;51.670;7.788;2024-03-23T13:51:54;4.43;;;2.43;;
11008;SDS011;5557;51.670;7.788;2024-03-23T13:54:21;3.07;;;1.60;;
11008;SDS011;5557;51.670;7.788;2024-03-23T13:56:51;4.20;;;1.60;;
11008;SDS011;5557;51.670;7.788;2024-03-23T13:59:17;3.83;;;2.03;;
11008;SDS011;5557;51.670;7.788;2024-03-23T14:01:44;4.30;;;2.17;;
11008;SDS011;5557;51.670;7.788;2024-03-23T14:04:13;4.10;;;2.60;;
11008;SDS011;5557;51.670;7.788;2024-03-23T14:06:39;5.73;;;2.30;;
11008;SDS011;5557;51.670;7.788;2024-03-23T14:09:05;3.00;;;2.60;;
11008;SDS011;5557;51.670;7.788;2024-03-23T14:11:37;3.50;;;2.40;;
11008;SDS011;5557;51.670;7.788;2024-03-23T14:14:03;2.67;;;2.03;;
11008;SDS011;5557;51.670;7.788;2024-03-23T14:16:32;2.73;;;1.90;;
11008;SDS011;5557;51.670;7.788;2024-03-23T14:18:58;1.63;;;1.53;;
11008;SDS011;5557;51.670;7.788;2024-03-23T14:21:24;4.90;;;1.70;;
11008;SDS011;5557;51.670;7.788;2024-03-23T14:23:52;1.77;;;1.67;;
11008;SDS011;5557;51.670;7.788;2024-03-23T14:26:19;1.77;;;1.63;;
11008;SDS011;5557;51.670;7.788;2024-03-23T14:28:45;2.30;;;1.43;;
11008;SDS011;5557;51.670;7.788;2024-03-23T14:31:12;2.40;;;1.80;;
11008;SDS011;5557;51.670;7.788;2024-03-23T14:33:39;4.93;;;1.80;;
11008;SDS011;5557;51.670;7.788;2024-03-23T14:36:15;2.57;;;1.60;;
11008;SDS011;5557;51.670;7.788;2024-03-23T14:38:48;1.60;;;1.50;;
11008;SDS011;5557;51.670;7.788;2024-03-23T14:41:14;3.00;;;1.53;;
11008;SDS011;5557;51.670;7.788;2024-03-23T14:43:40;2.23;;;1.43;;
11008;SDS011;5557;51.670;7.788;2024-03-23T14:48:36;3.03;;;1.93;;
11008;SDS011;5557;51.670;7.788;2024-03-23T14:51:02;3.93;;;2.13;;
11008;SDS011;5557;51.670;7.788;2024-03-23T14:53:34;2.33;;;1.60;;
11008;SDS011;5557;51.670;7.788;2024-03-23T14:56:01;1.70;;;1.60;;
11008;SDS011;5557;51.670;7.788;2024-03-23T14:58:28;1.93;;;1.83;;
11008;SDS011;5557;51.670;7.788;2024-03-23T15:01:01;3.47;;;1.90;;
11008;SDS011;5557;51.670;7.788;2024-03-23T15:03:28;2.30;;;1.70;;
11008;SDS011;5557;51.670;7.788;2024-03-23T15:05:58;10.00;;;3.33;;
11008;SDS011;5557;51.670;7.788;2024-03-23T15:08:27;4.70;;;2.60;;
11008;SDS011;5557;51.670;7.788;2024-03-23T15:10:54;2.43;;;2.00;;
11008;SDS011;5557;51.670;7.788;2024-03-23T15:13:24;3.53;;;2.23;;
11008;SDS011;5557;51.670;7.788;2024-03-23T15:15:50;2.30;;;1.77;;
11008;SDS011;5557;51.670;7.788;2024-03-23T15:18:17;4.47;;;2.07;;
11008;SDS011;5557;51.670;7.788;2024-03-23T15:20:55;8.17;;;2.10;;
11008;SDS011;5557;51.670;7.788;2024-03-23T15:23:22;6.47;;;2.20;;
11008;SDS011;5557;51.670;7.788;2024-03-23T15:25:58;2.47;;;2.00;;
11008;SDS011;5557;51.670;7.788;2024-03-23T15:28:26;3.87;;;2.20;;
11008;SDS011;5557;51.670;7.788;2024-03-23T15:31:06;2.83;;;2.60;;
11008;SDS011;5557;51.670;7.788;2024-03-23T15:33:33;3.17;;;2.10;;
11008;SDS011;5557;51.670;7.788;2024-03-23T15:36:00;5.00;;;2.50;;
11008;SDS011;5557;51.670;7.788;2024-03-23T15:38:30;4.10;;;1.80;;
11008;SDS011;5557;51.670;7.788;2024-03-23T15:40:57;2.17;;;1.90;;
11008;SDS011;5557;51.670;7.788;2024-03-23T15:43:23;3.40;;;1.90;;
11008;SDS011;5557;51.670;7.788;2024-03-23T15:45:55;9.77;;;1.93;;
11008;SDS011;5557;51.670;7.788;2024-03-23T15:48:28;7.53;;;2.20;;
11008;SDS011;5557;51.670;7.788;2024-03-23T15:50:59;2.00;;;1.60;;
11008;SDS011;5557;51.670;7.788;2024-03-23T15:53:26;2.77;;;2.17;;
11008;SDS011;5557;51.670;7.788;2024-03-23T15:55:57;4.90;;;1.77;;
11008;SDS011;5557;51.670;7.788;2024-03-23T15:58:24;4.80;;;2.00;;